Time;durP1;ratioP1;P1;durP2;ratioP2;P2;SDS_P1;SDS_P2;PMS_P1;PMS_P2;Temp;Humidity;BMP_temperature;BMP_pressure;BME280_temperature;BME280_humidity;BME280_pressure;Samples;Min_cycle;Max_cycle;Signal;HPM_P1;HPM_P2
2022/08/27 00:00:17;;;;;;;10.10;3.00;;;;;;;14.90;59.80;98627.45;105003;1272;62996;-25
2022/08/27 00:02:45;;;;;;;9.90;2.60;;;;;;;14.86;59.91;98627.48;104743;1274;63038;-25
2022/08/27 00:05:13;;;;;;;4.40;2.20;;;;;;;14.78;60.54;98625.38;104779;1271;76584;-25
2022/08/27 00:07:40;;;;;;;3.00;1.60;;;;;;;14.69;61.96;98623.16;104808;1274;77051;-25
2022/08/27 00:10:10;;;;;;;5.70;2.50;;;;;;;15.10;60.96;98621.31;104855;1271;74597;-25
2022/08/27 00:12:37;;;;;;;9.50;3.20;;;;;;;15.67;59.04;98618.27;104800;1274;63373;-25
2022/08/27 00:15:05;;;;;;;9.40;3.50;;;;;;;15.78;58.05;98619.42;105000;1271;63061;-25
2022/08/27 00:17:33;;;;;;;12.50;3.50;;;;;;;15.73;58.06;98619.10;105153;1274;75438;-25
2022/08/27 00:21:39;;;;;;;12.60;4.90;;;;;;;15.52;58.79;98619.94;101701;1310;615340;-24
2022/08/27 00:24:06;;;;;;;14.40;4.20;;;;;;;15.31;59.56;98620.60;104484;1284;62627;-24
2022/08/27 00:26:34;;;;;;;10.20;3.80;;;;;;;15.18;59.86;98623.44;104493;1284;61305;-24
2022/08/27 00:29:07;;;;;;;9.90;3.40;;;;;;;15.02;60.20;98622.83;104501;1284;73773;-24
2022/08/27 00:31:36;;;;;;;8.20;3.10;;;;;;;14.94;60.78;98627.02;104224;1284;75553;-24
2022/08/27 00:34:04;;;;;;;10.40;3.00;;;;;;;14.79;60.41;98625.30;103513;1284;1378919;-24
2022/08/27 00:36:33;;;;;;;5.80;3.20;;;;;;;14.69;61.35;98625.21;104573;1281;61079;-23
2022/08/27 00:39:01;;;;;;;10.60;2.60;;;;;;;14.62;61.50;98624.02;104583;1280;62128;-23
2022/08/27 00:41:29;;;;;;;5.70;2.90;;;;;;;14.53;61.90;98628.33;104591;1281;73665;-23
2022/08/27 00:43:58;;;;;;;7.40;2.70;;;;;;;14.44;62.61;98631.20;104608;1281;75999;-24
2022/08/27 00:46:44;;;;;;;8.00;2.70;;;;;;;14.42;62.99;98634.11;104481;1281;73544;-23
2022/08/27 00:49:37;;;;;;;6.50;2.80;;;;;;;14.27;63.46;98629.95;104553;1281;61127;-24
2022/08/27 00:52:17;;;;;;;5.30;3.00;;;;;;;14.13;63.76;98635.88;104622;1281;60990;-23
2022/08/27 00:54:45;;;;;;;7.50;2.60;;;;;;;14.10;63.62;98638.83;104586;1281;74648;-23
2022/08/27 00:57:12;;;;;;;5.60;2.50;;;;;;;14.66;61.60;98640.05;104441;1281;75017;-24
2022/08/27 00:59:41;;;;;;;8.30;3.00;;;;;;;15.10;59.81;98637.17;104522;1281;74471;-23
2022/08/27 01:02:20;;;;;;;8.90;3.30;;;;;;;15.18;59.63;98636.23;104554;1281;62064;-23
2022/08/27 01:04:55;;;;;;;5.30;3.00;;;;;;;15.09;59.90;98640.81;104697;1277;61476;-23
2022/08/27 01:07:22;;;;;;;6.40;2.90;;;;;;;15.01;60.77;98644.83;104338;1278;73084;-24
2022/08/27 01:09:51;;;;;;;6.30;3.10;;;;;;;14.91;61.16;98645.64;104411;1278;75907;-24
2022/08/27 01:12:19;;;;;;;15.20;4.60;;;;;;;14.78;61.55;98644.09;104349;1278;74500;-24
2022/08/27 01:14:46;;;;;;;8.50;3.30;;;;;;;14.61;62.74;98641.05;104426;1277;61952;-24
2022/08/27 01:17:14;;;;;;;4.20;2.70;;;;;;;14.49;63.33;98643.71;104657;1278;62061;-23
2022/08/27 01:20:13;;;;;;;6.40;2.90;;;;;;;14.34;63.24;98641.64;104406;1278;74672;-24
2022/08/27 01:23:00;;;;;;;11.10;3.90;;;;;;;14.18;63.86;98641.29;104278;1280;75785;-24
2022/08/27 01:25:28;;;;;;;21.50;7.90;;;;;;;14.09;63.56;98642.39;104387;1280;74379;-23
2022/08/27 01:27:57;;;;;;;10.60;4.30;;;;;;;13.99;64.02;98643.91;104564;1278;61150;-23
2022/08/27 01:30:24;;;;;;;13.50;4.60;;;;;;;13.90;64.54;98647.66;104531;1278;61897;-24
2022/08/27 01:32:51;;;;;;;8.40;2.70;;;;;;;14.39;64.76;98647.91;104636;1277;74731;-24
2022/08/27 01:35:19;;;;;;;8.40;3.30;;;;;;;14.95;63.29;98648.39;104411;1277;76032;-23
2022/08/27 01:37:48;;;;;;;10.70;4.50;;;;;;;15.05;62.14;98642.85;104411;1279;74160;-24
2022/08/27 01:40:18;;;;;;;5.60;3.00;;;;;;;14.92;62.52;98644.23;104255;1281;61897;-23
2022/08/27 01:42:49;;;;;;;6.70;3.50;;;;;;;14.65;63.77;98638.27;104294;1278;60997;-23
2022/08/27 01:45:20;;;;;;;5.60;2.80;;;;;;;14.34;64.52;98636.20;104252;1281;74569;-24
2022/08/27 01:47:47;;;;;;;6.10;2.90;;;;;;;14.08;65.17;98638.31;104385;1280;75979;-23
2022/08/27 01:50:18;;;;;;;7.10;2.80;;;;;;;13.81;66.02;98635.87;104463;1277;74327;-24
2022/08/27 01:52:46;;;;;;;5.00;2.50;;;;;;;13.53;67.07;98629.71;104474;1281;61677;-23
2022/08/27 01:55:15;;;;;;;9.10;2.80;;;;;;;13.31;67.52;98631.86;104562;1277;61136;-23
2022/08/27 01:57:42;;;;;;;6.30;3.00;;;;;;;13.14;68.52;98633.77;104393;1278;72589;-24
2022/08/27 02:00:16;;;;;;;3.10;1.60;;;;;;;13.03;69.44;98633.73;104524;1278;76104;-23
2022/08/27 02:02:43;;;;;;;;;;;;;;;13.52;68.57;98634.83;104356;1281;74475;-23
2022/08/27 02:05:11;;;;;;;4.20;1.90;;;;;;;14.02;67.21;98634.60;104386;1277;61900;-24
2022/08/27 02:07:38;;;;;;;5.30;2.40;;;;;;;14.01;66.65;98634.53;104183;1281;61832;-24
2022/08/27 02:10:08;;;;;;;7.70;2.60;;;;;;;13.84;66.80;98635.39;104355;1278;73414;-23
2022/08/27 02:12:35;;;;;;;4.00;2.30;;;;;;;13.62;67.40;98638.48;104293;1278;76408;-23
2022/08/27 02:15:05;;;;;;;7.00;2.90;;;;;;;13.39;67.61;98633.69;104376;1278;74409;-23
2022/08/27 02:17:33;;;;;;;6.60;2.90;;;;;;;13.23;67.44;98636.78;104441;1280;62052;-23
2022/08/27 02:20:00;;;;;;;6.70;3.40;;;;;;;13.15;68.24;98635.21;104612;1281;61034;-23
2022/08/27 02:22:27;;;;;;;7.90;3.00;;;;;;;13.09;68.83;98634.58;104717;1277;74636;-24
2022/08/27 02:24:55;;;;;;;7.70;3.10;;;;;;;13.02;68.75;98635.40;104666;1278;76144;-23
2022/08/27 02:27:22;;;;;;;9.10;2.40;;;;;;;13.04;68.22;98634.73;104625;1277;74419;-24
2022/08/27 02:29:50;;;;;;;9.50;2.80;;;;;;;13.60;66.28;98636.02;104646;1278;62022;-23
2022/08/27 02:32:19;;;;;;;5.20;3.10;;;;;;;14.13;63.93;98634.30;104640;1278;61949;-24
2022/08/27 02:34:59;;;;;;;8.30;3.20;;;;;;;14.17;63.42;98633.34;104525;1278;74736;-24
2022/08/27 02:37:27;;;;;;;9.80;3.30;;;;;;;14.07;63.82;98636.88;104633;1281;75876;-23
2022/08/27 02:39:55;;;;;;;7.20;3.10;;;;;;;14.01;65.17;98632.77;104558;1278;74412;-23
2022/08/27 02:42:23;;;;;;;5.50;2.70;;;;;;;13.86;66.39;98632.23;104512;1278;61145;-23
2022/08/27 02:44:50;;;;;;;8.90;2.90;;;;;;;13.59;67.82;98632.62;104288;1281;61985;-24
2022/08/27 02:47:17;;;;;;;5.20;2.70;;;;;;;13.32;68.00;98625.13;104296;1281;74585;-24
2022/08/27 02:49:45;;;;;;;11.50;3.10;;;;;;;13.10;69.02;98625.23;104506;1277;75785;-24
2022/08/27 02:52:12;;;;;;;8.10;3.30;;;;;;;12.90;68.36;98620.84;104574;1278;74907;-23
2022/08/27 02:54:40;;;;;;;9.30;3.20;;;;;;;12.84;68.15;98620.55;104341;1277;61860;-23
2022/08/27 02:57:07;;;;;;;31.40;9.40;;;;;;;12.86;68.14;98618.86;104462;1281;61137;-24
2022/08/27 02:59:34;;;;;;;45.50;17.80;;;;;;;13.44;66.79;98616.48;104231;1281;74585;-23
2022/08/27 03:02:02;;;;;;;63.10;22.30;;;;;;;14.07;65.25;98615.63;104397;1277;76166;-24
2022/08/27 03:04:29;;;;;;;57.70;20.80;;;;;;;14.23;64.56;98615.80;104487;1281;74635;-23
2022/08/27 03:06:57;;;;;;;90.60;31.60;;;;;;;14.16;64.98;98613.61;104310;1281;62324;-23
2022/08/27 03:09:25;;;;;;;55.50;21.80;;;;;;;13.99;65.58;98613.73;104422;1278;62134;-24
2022/08/27 03:11:52;;;;;;;45.20;18.30;;;;;;;13.81;65.82;98611.38;104280;1281;74725;-23
2022/08/27 03:14:19;;;;;;;40.10;17.10;;;;;;;13.62;65.85;98612.92;104517;1278;75983;-24
2022/08/27 03:16:47;;;;;;;37.40;13.60;;;;;;;13.44;67.10;98609.99;104609;1281;73574;-23
2022/08/27 03:19:15;;;;;;;28.00;10.10;;;;;;;13.24;68.33;98608.34;104636;1278;61141;-23
2022/08/27 03:21:50;;;;;;;11.10;4.70;;;;;;;13.04;69.09;98608.70;104518;1281;62084;-23
2022/08/27 03:24:21;;;;;;;8.80;2.90;;;;;;;12.86;69.86;98611.86;104261;1281;73592;-23
2022/08/27 03:26:49;;;;;;;8.20;2.60;;;;;;;13.27;69.97;98608.05;104319;1278;75855;-23
2022/08/27 03:29:20;;;;;;;7.70;2.70;;;;;;;13.76;67.96;98607.48;104602;1278;74125;-24
2022/08/27 03:31:47;;;;;;;6.40;2.50;;;;;;;13.73;67.48;98609.95;104611;1277;61157;-23
2022/08/27 03:34:15;;;;;;;5.70;3.00;;;;;;;13.51;68.20;98611.25;104418;1281;61089;-24
2022/08/27 03:36:47;;;;;;;5.70;2.70;;;;;;;13.24;69.04;98609.01;104379;1278;74761;-23
2022/08/27 03:39:15;;;;;;;6.40;2.90;;;;;;;13.02;69.42;98614.33;104543;1281;76000;-24
2022/08/27 03:41:43;;;;;;;8.30;3.40;;;;;;;12.87;68.84;98617.54;104491;1277;74538;-24
2022/08/27 03:44:22;;;;;;;8.40;3.30;;;;;;;12.78;69.37;98616.81;104873;1275;61155;-23
2022/08/27 03:46:50;;;;;;;11.10;4.20;;;;;;;12.70;70.04;98621.41;104645;1277;62101;-23
2022/08/27 03:49:19;;;;;;;6.00;2.40;;;;;;;12.70;70.58;98621.48;104742;1274;74854;-24
2022/08/27 03:51:49;;;;;;;26.20;9.60;;;;;;;13.26;69.05;98621.74;104590;1274;74883;-23
2022/08/27 03:54:16;;;;;;;72.00;27.50;;;;;;;13.98;67.15;98623.29;104461;1277;73491;-24
2022/08/27 03:56:44;;;;;;;43.70;16.60;;;;;;;14.20;66.66;98620.65;104611;1274;62084;-23
2022/08/27 03:59:11;;;;;;;65.00;24.70;;;;;;;14.18;67.24;98617.75;104630;1275;62092;-24
2022/08/27 04:01:40;;;;;;;47.20;19.40;;;;;;;14.07;67.49;98619.37;104957;1274;75704;-23
2022/08/27 04:04:08;;;;;;;39.90;16.40;;;;;;;13.97;67.27;98617.10;104683;1275;75863;-23
2022/08/27 04:06:36;;;;;;;104.40;40.20;;;;;;;13.90;67.44;98614.16;104628;1274;74225;-24
2022/08/27 04:09:03;;;;;;;115.80;41.50;;;;;;;13.80;67.42;98607.44;104802;1274;61045;-23
2022/08/27 04:11:33;;;;;;;86.10;32.20;;;;;;;13.77;67.53;98607.20;105135;1274;61159;-23
2022/08/27 04:14:03;;;;;;;133.50;47.30;;;;;;;13.77;67.43;98606.88;104700;1275;74613;-23
2022/08/27 04:16:47;;;;;;;28.50;13.10;;;;;;;13.77;66.83;98610.40;104915;1274;75681;-23
2022/08/27 04:19:18;;;;;;;34.10;15.10;;;;;;;14.44;65.65;98606.20;104796;1274;74420;-24
2022/08/27 04:21:45;;;;;;;18.30;6.90;;;;;;;14.78;63.95;98608.44;104876;1274;62641;-24
2022/08/27 04:24:12;;;;;;;51.10;21.20;;;;;;;14.81;63.62;98607.46;104805;1274;61186;-23
2022/08/27 04:26:41;;;;;;;93.60;37.50;;;;;;;14.66;64.22;98603.17;104662;1274;74960;-24
2022/08/27 04:29:08;;;;;;;141.60;54.90;;;;;;;14.64;63.95;98601.15;104714;1274;74961;-23
2022/08/27 04:31:35;;;;;;;114.60;46.50;;;;;;;14.73;64.26;98598.48;104912;1273;74455;-24
2022/08/27 04:34:06;;;;;;;128.50;52.30;;;;;;;14.90;63.74;98594.81;105129;1274;61021;-24
2022/08/27 04:36:34;;;;;;;56.70;23.80;;;;;;;14.91;63.47;98590.45;105082;1274;61073;-25
2022/08/27 04:39:01;;;;;;;52.90;21.90;;;;;;;14.96;63.37;98594.18;104922;1274;74704;-23
2022/08/27 04:41:32;;;;;;;167.20;62.20;;;;;;;15.12;63.75;98595.45;104668;1274;75866;-23
2022/08/27 04:44:04;;;;;;;261.20;97.70;;;;;;;15.16;63.64;98591.16;104708;1274;74485;-23
2022/08/27 04:46:34;;;;;;;303.70;117.80;;;;;;;15.10;63.20;98592.23;104635;1280;61226;-24
2022/08/27 04:49:03;;;;;;;194.40;76.10;;;;;;;15.11;63.40;98590.41;104692;1274;61764;-23
2022/08/27 04:51:37;;;;;;;155.10;62.70;;;;;;;15.23;63.59;98589.27;104726;1278;75503;-23
2022/08/27 04:54:07;;;;;;;155.80;64.40;;;;;;;15.36;63.24;98589.48;104760;1274;76225;-23
2022/08/27 04:56:35;;;;;;;122.20;50.60;;;;;;;15.61;62.91;98587.85;104755;1274;74411;-24
2022/08/27 04:59:04;;;;;;;67.40;30.30;;;;;;;15.72;62.24;98586.98;104800;1274;61191;-23
2022/08/27 05:01:31;;;;;;;71.80;30.30;;;;;;;15.75;62.05;98583.89;104795;1275;61982;-23
2022/08/27 05:04:00;;;;;;;53.00;24.70;;;;;;;15.80;61.84;98581.25;105119;1274;75615;-23
2022/08/27 05:06:27;;;;;;;63.60;31.20;;;;;;;15.96;61.71;98584.55;104898;1274;76034;-23
2022/08/27 05:08:55;;;;;;;54.20;24.40;;;;;;;16.38;61.04;98586.96;104879;1274;74153;-23
2022/08/27 05:11:23;;;;;;;29.80;13.20;;;;;;;16.71;59.83;98586.83;104614;1274;61525;-23
2022/08/27 05:13:51;;;;;;;29.40;14.10;;;;;;;17.02;59.17;98587.34;104644;1277;61778;-25
2022/08/27 05:16:21;;;;;;;69.20;32.30;;;;;;;17.30;58.20;98586.11;104893;1274;75704;-25
2022/08/27 05:18:50;;;;;;;19.90;9.10;;;;;;;17.51;57.54;98585.59;104640;1275;76018;-25
2022/08/27 05:21:26;;;;;;;18.60;9.20;;;;;;;17.71;56.11;98586.87;104691;1278;74240;-23
2022/08/27 05:23:53;;;;;;;17.80;8.70;;;;;;;17.98;55.92;98587.95;104835;1275;61952;-23
2022/08/27 05:26:21;;;;;;;13.10;6.40;;;;;;;18.26;55.68;98585.68;104806;1274;62019;-24
2022/08/27 05:28:49;;;;;;;10.10;6.50;;;;;;;18.51;55.21;98585.81;104718;1274;74524;-23
2022/08/27 05:31:16;;;;;;;10.10;6.40;;;;;;;18.71;54.55;98586.70;105067;1274;76011;-23
2022/08/27 05:33:44;;;;;;;14.80;6.30;;;;;;;18.94;54.16;98587.25;104616;1277;74396;-23
2022/08/27 05:36:19;;;;;;;13.10;6.20;;;;;;;19.17;53.39;98588.86;104955;1274;61328;-23
2022/08/27 05:38:48;;;;;;;10.30;5.70;;;;;;;19.23;52.86;98588.80;104796;1274;61870;-23
2022/08/27 05:41:17;;;;;;;14.10;5.40;;;;;;;19.38;53.47;98589.58;104724;1274;74528;-23
2022/08/27 05:43:44;;;;;;;13.00;7.50;;;;;;;19.45;52.59;98585.36;104673;1275;75851;-23
2022/08/27 05:46:19;;;;;;;11.50;6.80;;;;;;;19.34;52.29;98586.05;104844;1274;74218;-23
2022/08/27 05:48:47;;;;;;;26.40;12.70;;;;;;;19.17;53.20;98584.68;104628;1274;61167;-23
2022/08/27 05:51:15;;;;;;;20.70;8.80;;;;;;;19.46;52.37;98585.31;104784;1277;61163;-23
2022/08/27 05:53:57;;;;;;;13.10;6.80;;;;;;;19.52;53.06;98581.86;104622;1274;75514;-23
2022/08/27 05:56:26;;;;;;;14.60;9.20;;;;;;;19.69;52.90;98578.66;104616;1275;76178;-23
2022/08/27 06:01:44;;;;;;;13.50;7.70;;;;;;;19.55;52.23;98574.39;104648;1274;61067;-23
2022/08/27 06:04:12;;;;;;;12.90;5.80;;;;;;;19.68;51.86;98570.65;104547;1277;60985;-24
2022/08/27 06:06:45;;;;;;;14.30;6.50;;;;;;;19.76;51.97;98572.71;104574;1275;74501;-23
2022/08/27 06:09:15;;;;;;;16.90;6.40;;;;;;;19.99;51.99;98573.69;104697;1274;75883;-23
2022/08/27 06:11:43;;;;;;;15.60;6.10;;;;;;;20.08;51.89;98578.64;104459;1274;73457;-24
2022/08/27 06:14:11;;;;;;;13.20;6.20;;;;;;;20.20;52.25;98578.88;104686;1274;61193;-22
2022/08/27 06:16:39;;;;;;;10.60;5.80;;;;;;;20.30;52.46;98581.34;105106;1274;62006;-25
2022/08/27 06:19:07;;;;;;;13.80;5.80;;;;;;;20.32;52.12;98579.06;104723;1275;75522;-25
2022/08/27 06:21:34;;;;;;;11.30;6.10;;;;;;;20.31;52.05;98581.70;104873;1274;76514;-25
2022/08/27 06:24:02;;;;;;;14.30;5.80;;;;;;;20.11;52.61;98579.17;105073;1274;74666;-25
2022/08/27 06:26:29;;;;;;;11.60;5.50;;;;;;;20.08;51.89;98580.54;104810;1275;61121;-25
2022/08/27 06:29:01;;;;;;;11.00;6.10;;;;;;;20.12;52.49;98583.56;104925;1274;63115;-25
2022/08/27 06:31:28;;;;;;;9.70;5.90;;;;;;;20.28;52.18;98586.54;104609;1274;74246;-25
2022/08/27 06:34:00;;;;;;;13.40;5.90;;;;;;;20.45;52.30;98588.56;104777;1274;75803;-23
2022/08/27 06:36:36;;;;;;;11.50;5.80;;;;;;;20.58;52.30;98590.14;104515;1274;74258;-23
2022/08/27 06:39:03;;;;;;;14.90;6.30;;;;;;;20.71;51.97;98589.17;104788;1277;61136;-23
2022/08/27 06:41:31;;;;;;;8.70;6.60;;;;;;;20.81;52.09;98587.81;105025;1274;61123;-23
2022/08/27 06:43:59;;;;;;;13.90;5.90;;;;;;;20.87;52.32;98586.11;104436;1274;76407;-23
2022/08/27 06:46:27;;;;;;;14.20;6.30;;;;;;;20.98;51.93;98584.48;104649;1274;75824;-23
2022/08/27 06:48:56;;;;;;;13.10;6.40;;;;;;;21.07;51.83;98587.29;104675;1274;73934;-23
2022/08/27 06:51:25;;;;;;;13.20;7.10;;;;;;;21.22;51.72;98582.01;104385;1275;61143;-23
2022/08/27 06:53:54;;;;;;;33.30;27.70;;;;;;;21.36;51.36;98584.97;104844;1274;61216;-23
2022/08/27 06:56:21;;;;;;;13.00;7.50;;;;;;;21.34;51.48;98587.86;104658;1274;75568;-23
2022/08/27 06:58:54;;;;;;;19.80;7.20;;;;;;;21.34;51.68;98586.73;105079;1274;76046;-23
2022/08/27 07:01:32;;;;;;;9.40;5.70;;;;;;;21.59;51.06;98587.91;104856;1274;74510;-23
2022/08/27 07:04:01;;;;;;;11.70;5.80;;;;;;;21.73;50.69;98585.19;104664;1274;61232;-23
2022/08/27 07:06:30;;;;;;;10.30;6.00;;;;;;;21.84;50.66;98581.80;104637;1274;62004;-23
2022/08/27 07:08:58;;;;;;;12.00;6.10;;;;;;;21.94;49.84;98581.20;104779;1274;75949;-23
2022/08/27 07:11:27;;;;;;;20.00;5.90;;;;;;;22.03;50.45;98578.70;104747;1274;75998;-23
2022/08/27 07:13:55;;;;;;;22.20;5.10;;;;;;;22.27;50.05;98579.34;104708;1275;74646;-23
2022/08/27 07:16:24;;;;;;;12.20;5.50;;;;;;;22.47;48.98;98578.40;104599;1274;61293;-23
2022/08/27 07:18:53;;;;;;;12.00;5.50;;;;;;;22.60;48.81;98577.66;104653;1275;61051;-23
2022/08/27 07:21:20;;;;;;;19.80;5.80;;;;;;;22.79;47.35;98573.96;104693;1275;74666;-23
2022/08/27 07:23:50;;;;;;;9.10;5.70;;;;;;;22.93;47.24;98574.63;104575;1274;76057;-23
2022/08/27 07:26:18;;;;;;;17.10;5.50;;;;;;;23.05;46.33;98571.95;104597;1275;74456;-23
2022/08/27 07:28:46;;;;;;;12.00;7.40;;;;;;;22.98;45.78;98572.38;104702;1274;61132;-23
2022/08/27 07:31:15;;;;;;;11.70;5.50;;;;;;;23.00;45.28;98570.64;104797;1274;61097;-23
2022/08/27 07:33:43;;;;;;;13.20;5.50;;;;;;;23.19;45.40;98571.55;104599;1277;74978;-23
2022/08/27 07:36:20;;;;;;;14.30;5.20;;;;;;;23.38;44.41;98569.63;104788;1274;76168;-23
2022/08/27 07:38:48;;;;;;;10.30;4.70;;;;;;;23.46;44.13;98568.31;104634;1275;74385;-23
2022/08/27 07:41:29;;;;;;;17.80;7.00;;;;;;;23.69;43.84;98569.81;104617;1274;61749;-23
2022/08/27 07:46:46;;;;;;;9.90;4.60;;;;;;;24.07;43.45;98570.05;104623;1274;74805;-23
2022/08/27 07:49:19;;;;;;;8.40;4.80;;;;;;;24.31;42.61;98565.27;104764;1274;75852;-23
2022/08/27 07:51:46;;;;;;;8.10;5.00;;;;;;;24.61;43.21;98568.47;104611;1274;74430;-23
2022/08/27 07:54:14;;;;;;;8.50;4.90;;;;;;;24.87;42.54;98569.64;104596;1274;61129;-23
2022/08/27 07:56:41;;;;;;;9.00;4.90;;;;;;;25.15;42.90;98570.96;104657;1274;62194;-23
2022/08/27 07:59:11;;;;;;;9.10;4.70;;;;;;;25.43;41.66;98570.79;104770;1274;74385;-23
2022/08/27 08:01:41;;;;;;;11.30;5.00;;;;;;;25.57;39.96;98577.05;105001;1274;75996;-23
2022/08/27 08:04:09;;;;;;;9.70;5.20;;;;;;;25.83;40.29;98576.06;104846;1274;74356;-23
2022/08/27 08:06:39;;;;;;;8.30;5.70;;;;;;;26.09;40.66;98574.70;104770;1274;62045;-23
2022/08/27 08:09:07;;;;;;;12.10;5.60;;;;;;;26.09;40.52;98575.08;104978;1274;61098;-23
2022/08/27 08:11:38;;;;;;;16.30;5.70;;;;;;;26.26;41.43;98577.05;104831;1274;74455;-23
2022/08/27 08:14:05;;;;;;;9.80;5.10;;;;;;;26.48;38.78;98576.95;104825;1274;76632;-23
2022/08/27 08:16:32;;;;;;;10.20;5.80;;;;;;;26.61;38.79;98576.88;104980;1275;74472;-23
2022/08/27 08:19:00;;;;;;;11.30;5.30;;;;;;;26.95;38.49;98578.89;105063;1274;62125;-23
2022/08/27 08:21:28;;;;;;;9.70;6.20;;;;;;;27.05;37.72;98575.17;105114;1272;62087;-23
2022/08/27 08:23:55;;;;;;;12.90;5.90;;;;;;;26.39;38.57;98572.21;105051;1271;75521;-23
2022/08/27 08:26:22;;;;;;;11.90;5.30;;;;;;;26.64;38.13;98572.35;105023;1271;76014;-23
2022/08/27 08:28:50;;;;;;;11.50;5.20;;;;;;;27.09;36.93;98570.65;105121;1271;74620;-23
2022/08/27 08:31:17;;;;;;;8.60;4.70;;;;;;;27.24;36.88;98569.48;105137;1271;61460;-23
2022/08/27 08:33:46;;;;;;;11.50;5.40;;;;;;;27.35;36.33;98571.17;104953;1271;60986;-23
2022/08/27 08:36:15;;;;;;;9.40;4.90;;;;;;;27.37;36.56;98569.48;104970;1271;75437;-23
2022/08/27 08:38:43;;;;;;;13.30;5.10;;;;;;;27.27;36.19;98568.93;105140;1271;76022;-23
2022/08/27 08:41:30;;;;;;;10.00;5.40;;;;;;;26.93;36.52;98570.35;105185;1271;74400;-23
2022/08/27 08:43:58;;;;;;;13.10;5.40;;;;;;;26.55;37.80;98566.23;105181;1271;61107;-23
2022/08/27 08:46:38;;;;;;;11.70;6.40;;;;;;;26.78;37.34;98569.60;105120;1271;61876;-23
2022/08/27 08:49:41;;;;;;;8.70;5.00;;;;;;;26.99;37.47;98569.02;105111;1271;75389;-23
2022/08/27 08:52:33;;;;;;;20.20;11.70;;;;;;;27.14;36.69;98570.25;104796;1271;76018;-23
2022/08/27 08:55:07;;;;;;;14.00;7.40;;;;;;;26.66;37.15;98567.56;105133;1271;74140;-23
2022/08/27 08:57:38;;;;;;;7.70;5.00;;;;;;;26.99;35.91;98568.79;105084;1271;61846;-23
2022/08/27 09:00:11;;;;;;;9.50;4.70;;;;;;;27.38;36.39;98567.41;105159;1271;62034;-23
2022/08/27 09:02:39;;;;;;;12.20;6.00;;;;;;;27.77;35.47;98564.48;105074;1272;75544;-23
2022/08/27 09:05:08;;;;;;;12.00;5.80;;;;;;;27.61;34.52;98562.81;105091;1271;76022;-23
2022/08/27 09:08:03;;;;;;;10.40;5.10;;;;;;;27.85;34.69;98564.25;105131;1271;73284;-23
2022/08/27 09:11:15;;;;;;;9.40;4.60;;;;;;;28.14;33.86;98566.13;104971;1271;61138;-23
2022/08/27 09:13:47;;;;;;;13.40;5.10;;;;;;;28.12;34.10;98568.89;104871;1271;62067;-23
2022/08/27 09:16:14;;;;;;;10.90;4.50;;;;;;;28.67;33.80;98567.45;105117;1271;75663;-23
2022/08/27 09:18:43;;;;;;;7.10;4.40;;;;;;;28.78;32.80;98567.98;105208;1271;77741;-23
2022/08/27 09:21:17;;;;;;;6.70;4.20;;;;;;;29.03;32.47;98569.77;105192;1271;74200;-23
2022/08/27 09:24:01;;;;;;;8.10;4.20;;;;;;;29.26;32.00;98567.92;105221;1271;61849;-23
2022/08/27 09:26:29;;;;;;;9.00;4.60;;;;;;;29.51;32.20;98565.80;105137;1271;61950;-23
2022/08/27 09:29:17;;;;;;;9.90;4.20;;;;;;;29.75;32.42;98561.34;105239;1271;75621;-23
2022/08/27 09:31:59;;;;;;;10.80;4.20;;;;;;;29.84;31.27;98562.70;105080;1271;74946;-23
2022/08/27 09:34:33;;;;;;;7.40;4.10;;;;;;;30.20;31.00;98559.14;105016;1271;74550;-23
2022/08/27 09:37:06;;;;;;;12.50;4.80;;;;;;;29.85;30.98;98559.22;104972;1271;61131;-23
2022/08/27 09:40:10;;;;;;;19.20;7.50;;;;;;;29.18;31.52;98559.02;104893;1271;62025;-23
2022/08/27 09:42:48;;;;;;;7.60;3.80;;;;;;;30.27;31.28;98559.20;104811;1271;75841;-23
2022/08/27 09:45:24;;;;;;;6.60;4.20;;;;;;;30.85;29.51;98559.18;105057;1271;75603;-23
2022/08/27 09:47:56;;;;;;;6.30;4.50;;;;;;;30.81;29.22;98560.95;104815;1270;73381;-23
2022/08/27 09:50:27;;;;;;;8.50;3.90;;;;;;;30.67;29.06;98564.41;105014;1272;61872;-23
2022/08/27 09:52:57;;;;;;;8.40;4.00;;;;;;;30.75;29.38;98565.79;104958;1270;62477;-23
2022/08/27 09:55:57;;;;;;;34.30;16.10;;;;;;;30.83;29.69;98563.18;105012;1271;74484;-23
2022/08/27 09:58:33;;;;;;;13.70;4.50;;;;;;;31.13;29.41;98562.52;105212;1271;75828;-23
2022/08/27 10:01:17;;;;;;;8.70;4.00;;;;;;;31.12;28.68;98559.03;105106;1271;74378;-23
2022/08/27 10:03:44;;;;;;;9.50;3.90;;;;;;;31.54;28.98;98554.48;105113;1271;63692;-24
2022/08/27 10:06:11;;;;;;;6.10;3.20;;;;;;;31.99;28.17;98552.55;105086;1271;62012;-23
2022/08/27 10:08:42;;;;;;;9.00;4.10;;;;;;;32.08;27.09;98553.42;105152;1271;75375;-23
2022/08/27 10:11:34;;;;;;;19.90;7.20;;;;;;;32.13;27.75;98553.23;105116;1271;76314;-24
2022/08/27 10:14:13;;;;;;;8.60;3.70;;;;;;;31.82;27.21;98548.58;105110;1271;72754;-23
2022/08/27 10:16:52;;;;;;;7.10;3.50;;;;;;;31.18;27.55;98551.16;104713;1271;61116;-23
2022/08/27 10:19:41;;;;;;;13.80;3.40;;;;;;;31.95;27.27;98549.13;104727;1271;62200;-23
2022/08/27 10:22:43;;;;;;;10.00;3.30;;;;;;;32.64;26.38;98547.67;104919;1271;75584;-23
2022/08/27 10:25:33;;;;;;;15.10;2.90;;;;;;;32.68;25.85;98549.73;104878;1271;75867;-23
2022/08/27 10:28:04;;;;;;;9.10;2.70;;;;;;;32.96;25.32;98546.02;104932;1271;72744;-23
2022/08/27 10:30:51;;;;;;;8.60;2.70;;;;;;;33.00;24.52;98546.55;104818;1271;61148;-23
2022/08/27 10:33:43;;;;;;;5.40;2.70;;;;;;;32.80;24.70;98551.09;104751;1271;61116;-23
2022/08/27 10:36:30;;;;;;;;;;;;;;;32.71;25.40;98548.09;104916;1271;75348;-24
2022/08/27 10:39:00;;;;;;;9.10;3.00;;;;;;;32.82;25.34;98546.55;104782;1271;76456;-24
2022/08/27 10:41:36;;;;;;;6.00;2.40;;;;;;;32.91;24.93;98546.41;104796;1271;74591;-23
2022/08/27 10:44:03;;;;;;;10.00;2.20;;;;;;;33.21;23.69;98543.46;104738;1271;61580;-23
2022/08/27 10:46:44;;;;;;;4.80;2.20;;;;;;;33.39;22.87;98544.27;104972;1271;61981;-23
2022/08/27 10:49:17;;;;;;;5.70;2.00;;;;;;;33.63;22.26;98544.64;104766;1271;75618;-23
2022/08/27 10:52:03;;;;;;;6.80;1.90;;;;;;;33.84;23.74;98541.06;104808;1271;76087;-23
2022/08/27 10:54:51;;;;;;;3.10;1.90;;;;;;;34.20;23.94;98542.60;104888;1271;74196;-23
2022/08/27 10:57:40;;;;;;;7.60;2.20;;;;;;;34.64;22.60;98541.30;104763;1271;62436;-23
2022/08/27 11:00:30;;;;;;;4.10;2.10;;;;;;;35.05;20.97;98544.29;104951;1271;61815;-24
2022/08/27 11:03:01;;;;;;;6.40;3.10;;;;;;;34.92;21.41;98544.23;104726;1270;75609;-23
2022/08/27 11:05:48;;;;;;;5.00;2.40;;;;;;;34.42;21.39;98537.17;104713;1271;76053;-23
2022/08/27 11:08:32;;;;;;;9.00;3.20;;;;;;;32.99;21.66;98539.66;104790;1271;74298;-23
2022/08/27 11:11:10;;;;;;;11.50;5.80;;;;;;;33.08;23.49;98534.16;104770;1271;61484;-23
2022/08/27 11:13:58;;;;;;;21.60;13.90;;;;;;;33.27;22.87;98534.38;104916;1270;61102;-23
2022/08/27 11:16:36;;;;;;;11.80;6.70;;;;;;;32.96;22.03;98534.66;104831;1272;75456;-24
2022/08/27 11:19:25;;;;;;;14.10;7.40;;;;;;;32.28;21.83;98532.86;104756;1271;75948;-25
2022/08/27 11:22:16;;;;;;;18.80;11.70;;;;;;;32.55;21.90;98534.88;104650;1271;74436;-25
2022/08/27 11:24:58;;;;;;;8.10;4.00;;;;;;;31.85;22.52;98533.90;105081;1271;62127;-22
2022/08/27 11:27:27;;;;;;;7.00;2.50;;;;;;;32.02;23.66;98533.52;104797;1272;61864;-25
2022/08/27 11:30:05;;;;;;;6.50;2.20;;;;;;;32.82;22.87;98533.45;104794;1270;74466;-23
2022/08/27 11:32:55;;;;;;;7.10;2.10;;;;;;;33.00;22.31;98535.00;104796;1271;75513;-25
2022/08/27 11:36:01;;;;;;;4.60;1.90;;;;;;;32.94;23.42;98534.36;104990;1271;74207;-24
2022/08/27 11:38:54;;;;;;;4.50;2.50;;;;;;;32.50;24.34;98536.42;104723;1271;61144;-24
2022/08/27 11:41:39;;;;;;;6.80;2.70;;;;;;;31.97;23.90;98536.09;104923;1271;61788;-24
2022/08/27 11:44:13;;;;;;;8.50;2.10;;;;;;;31.69;24.21;98539.75;104796;1271;75512;-25
2022/08/27 11:46:52;;;;;;;4.80;2.10;;;;;;;31.46;24.75;98541.13;104779;1271;76330;-24
2022/08/27 11:49:26;;;;;;;3.80;2.10;;;;;;;31.54;25.46;98538.56;104782;1271;74379;-24